createdAt,value
2023-03-10T00:00:38.003Z,50.90
2023-03-10T00:04:23.073Z,51.70
2023-03-10T00:07:51.204Z,52.00
2023-03-10T00:11:18.922Z,52.40
2023-03-10T00:14:46.151Z,53.00
2023-03-10T00:18:13.150Z,52.20
2023-03-10T00:21:40.191Z,54.20
2023-03-10T00:25:09.193Z,49.00
2023-03-10T00:28:36.201Z,50.80
2023-03-10T00:32:03.813Z,54.20
2023-03-10T00:35:30.877Z,53.30
2023-03-10T00:39:03.838Z,54.00
2023-03-10T00:42:30.866Z,51.20
2023-03-10T00:45:58.305Z,55.40
2023-03-10T00:49:25.546Z,55.10
2023-03-10T00:52:52.913Z,54.40
2023-03-10T00:56:22.262Z,48.40
2023-03-10T00:59:53.556Z,57.60
2023-03-10T01:03:20.903Z,57.20
2023-03-10T01:06:47.971Z,54.50
2023-03-10T01:10:15.794Z,50.30
2023-03-10T01:13:43.231Z,55.70
2023-03-10T01:17:10.567Z,56.30
2023-03-10T01:20:38.022Z,58.80
2023-03-10T01:24:06.569Z,63.00
2023-03-10T01:27:33.571Z,63.30
2023-03-10T01:31:00.625Z,64.50
2023-03-10T01:34:27.912Z,60.50
2023-03-10T01:37:54.941Z,64.60
2023-03-10T01:41:23.485Z,58.70
2023-03-10T01:45:10.455Z,59.50
2023-03-10T01:48:38.767Z,61.90
2023-03-10T01:52:11.685Z,52.00
2023-03-10T01:55:43.481Z,59.00
2023-03-10T01:59:11.497Z,61.70
2023-03-10T02:02:41.677Z,60.10
2023-03-10T02:06:12.927Z,57.10
2023-03-10T02:09:44.572Z,61.20
2023-03-10T02:13:11.615Z,60.00
2023-03-10T02:16:38.810Z,58.40
2023-03-10T02:20:28.583Z,59.40
2023-03-10T02:24:05.091Z,56.80
2023-03-10T02:27:36.628Z,52.60
2023-03-10T02:31:04.955Z,53.90
2023-03-10T02:34:34.704Z,55.20
2023-03-10T02:38:02.145Z,54.90
2023-03-10T02:41:32.918Z,49.40
2023-03-10T02:45:00.609Z,52.50
2023-03-10T02:48:30.983Z,53.60
2023-03-10T02:52:00.108Z,51.80
2023-03-10T02:55:27.498Z,54.40
2023-03-10T02:58:55.076Z,51.50
2023-03-10T03:02:22.257Z,50.30
2023-03-10T03:05:50.212Z,51.50
2023-03-10T03:09:17.701Z,53.90
2023-03-10T03:12:45.860Z,52.80
2023-03-10T03:16:13.658Z,55.10
2023-03-10T03:19:42.006Z,53.50
2023-03-10T03:23:09.866Z,55.60
2023-03-10T03:26:37.674Z,60.30
2023-03-10T03:30:16.069Z,57.80
2023-03-10T03:33:43.397Z,58.40
2023-03-10T03:37:11.071Z,56.40
2023-03-10T03:40:39.974Z,55.60
2023-03-10T03:44:08.534Z,56.10
2023-03-10T03:47:36.130Z,56.30
2023-03-10T03:51:03.728Z,54.50
2023-03-10T03:54:36.455Z,61.20
2023-03-10T03:58:03.776Z,63.00
2023-03-10T04:01:30.926Z,62.00
2023-03-10T04:04:58.571Z,64.20
2023-03-10T04:08:26.131Z,63.20
2023-03-10T04:11:54.234Z,63.50
2023-03-10T04:15:22.435Z,66.40
2023-03-10T04:18:50.004Z,59.70
2023-03-10T04:22:17.343Z,65.80
2023-03-10T04:25:45.692Z,62.50
2023-03-10T04:29:13.639Z,64.30
2023-03-10T04:32:41.335Z,68.10
2023-03-10T04:36:10.458Z,66.00
2023-03-10T04:39:38.768Z,67.20
2023-03-10T04:43:06.832Z,70.30
2023-03-10T04:46:34.642Z,68.80
2023-03-10T04:50:02.204Z,71.40
2023-03-10T04:53:32.583Z,68.70
2023-03-10T05:00:26.593Z,68.80
2023-03-10T05:03:53.996Z,67.50
2023-03-10T05:07:21.517Z,67.60
2023-03-10T05:10:50.589Z,72.40
2023-03-10T05:14:18.981Z,70.00
2023-03-10T05:17:48.237Z,66.60
2023-03-10T05:21:18.452Z,67.10
2023-03-10T05:24:46.095Z,72.70
2023-03-10T05:28:13.870Z,64.90
2023-03-10T05:31:42.592Z,62.70
2023-03-10T05:35:14.441Z,70.00
2023-03-10T05:38:42.476Z,70.40
2023-03-10T05:42:12.552Z,68.80
2023-03-10T05:45:41.012Z,67.00
2023-03-10T05:49:08.457Z,68.60
2023-03-10T05:52:40.033Z,71.30
2023-03-10T05:56:13.601Z,70.20
2023-03-10T05:59:42.036Z,69.90
2023-03-10T06:03:09.828Z,72.20
2023-03-10T06:06:37.265Z,69.20
2023-03-10T06:10:05.731Z,66.50
2023-03-10T06:13:33.432Z,70.70
2023-03-10T06:17:00.983Z,65.20
2023-03-10T06:20:28.324Z,72.70
2023-03-10T06:23:55.518Z,74.50
2023-03-10T06:27:22.932Z,75.20
2023-03-10T06:30:57.033Z,72.30
2023-03-10T06:34:24.232Z,71.00
2023-03-10T06:37:51.465Z,66.50
2023-03-10T06:41:18.853Z,68.50
2023-03-10T06:44:48.751Z,67.10
2023-03-10T06:48:16.976Z,62.30
2023-03-10T06:51:47.209Z,67.30
2023-03-10T06:55:16.114Z,62.40
2023-03-10T06:58:44.733Z,63.90
2023-03-10T07:02:13.588Z,61.50
2023-03-10T07:05:40.877Z,43.40
2023-03-10T07:09:08.488Z,54.00
2023-03-10T07:12:35.675Z,58.50
2023-03-10T07:16:02.812Z,57.30
2023-03-10T07:19:29.799Z,55.80
2023-03-10T07:22:56.782Z,53.20
2023-03-10T07:26:24.056Z,50.50
2023-03-10T07:29:51.241Z,48.40
2023-03-10T07:33:19.173Z,53.60
2023-03-10T07:36:46.240Z,47.70
2023-03-10T07:40:14.835Z,34.40
2023-03-10T07:43:42.313Z,27.20
2023-03-10T07:47:09.725Z,26.40
2023-03-10T07:50:36.755Z,24.40
2023-03-10T07:54:03.792Z,24.50
2023-03-10T07:57:30.816Z,22.70
2023-03-10T08:00:58.979Z,22.30
2023-03-10T08:04:26.894Z,21.90
2023-03-10T08:07:54.287Z,20.40
2023-03-10T08:11:22.321Z,20.80
2023-03-10T08:14:51.206Z,19.70
2023-03-10T08:18:18.267Z,20.40
2023-03-10T08:21:46.423Z,18.70
2023-03-10T08:25:13.825Z,18.20
2023-03-10T08:28:41.143Z,16.50
2023-03-10T08:32:09.525Z,14.20
2023-03-10T08:35:37.327Z,14.20
2023-03-10T08:39:05.894Z,12.90
2023-03-10T08:42:33.776Z,11.60
2023-03-10T08:46:00.909Z,9.50
2023-03-10T08:49:28.119Z,10.70
2023-03-10T08:52:55.601Z,9.20
2023-03-10T08:56:24.288Z,7.30
2023-03-10T08:59:51.835Z,8.20
2023-03-10T09:03:18.950Z,7.60
2023-03-10T09:06:46.373Z,7.40
2023-03-10T09:10:13.913Z,7.30
2023-03-10T09:13:41.088Z,7.10
2023-03-10T09:17:09.664Z,6.10
2023-03-10T09:20:39.856Z,6.10
2023-03-10T09:24:07.706Z,6.20
2023-03-10T09:27:34.889Z,5.90
2023-03-10T09:31:02.032Z,6.40
2023-03-10T09:34:30.078Z,5.70
2023-03-10T09:37:57.101Z,6.60
2023-03-10T09:41:46.971Z,5.80
2023-03-10T09:45:26.374Z,5.80
2023-03-10T09:49:05.848Z,6.90
2023-03-10T09:52:45.320Z,6.10
2023-03-10T09:56:17.848Z,5.90
2023-03-10T09:59:48.152Z,6.70
2023-03-10T10:03:21.156Z,6.10
2023-03-10T10:06:51.054Z,5.10
2023-03-10T10:10:23.256Z,5.60
2023-03-10T10:13:51.496Z,5.00
2023-03-10T10:17:26.488Z,6.10
2023-03-10T10:21:00.490Z,5.80
2023-03-10T10:24:27.690Z,5.50
2023-03-10T10:27:58.107Z,4.90
2023-03-10T10:31:28.487Z,5.00
2023-03-10T10:35:16.341Z,4.80
2023-03-10T10:38:52.084Z,4.20
2023-03-10T10:42:24.257Z,3.60
2023-03-10T10:45:56.258Z,4.30
2023-03-10T10:49:26.704Z,3.70
2023-03-10T10:53:14.591Z,4.30
2023-03-10T10:56:54.855Z,3.80
2023-03-10T11:00:29.662Z,3.80
2023-03-10T11:04:08.064Z,3.70
2023-03-10T11:07:35.153Z,3.90
2023-03-10T11:11:09.048Z,3.70
2023-03-10T11:14:45.299Z,3.70
2023-03-10T11:18:18.538Z,3.90
2023-03-10T11:21:50.571Z,3.90
2023-03-10T11:25:26.978Z,3.90
2023-03-10T11:28:57.986Z,3.60
2023-03-10T11:32:34.964Z,3.70
2023-03-10T11:36:14.832Z,3.80
2023-03-10T11:39:55.210Z,3.40
2023-03-10T11:43:33.640Z,3.10
2023-03-10T11:47:07.422Z,3.60
2023-03-10T11:50:43.522Z,3.30
2023-03-10T11:54:19.808Z,4.00
2023-03-10T11:57:50.028Z,10.20
2023-03-10T12:01:20.619Z,5.00
2023-03-10T12:04:52.681Z,3.80
2023-03-10T12:08:22.186Z,2.70
2023-03-10T12:15:24.514Z,4.30
2023-03-10T12:18:51.887Z,3.10
2023-03-10T12:22:37.296Z,3.30
2023-03-10T12:26:04.416Z,3.20
2023-03-10T12:29:43.692Z,3.00
2023-03-10T12:33:52.408Z,2.80
2023-03-10T12:37:25.338Z,2.90
2023-03-10T12:40:53.310Z,2.90
2023-03-10T12:44:58.495Z,3.30
2023-03-10T12:48:26.105Z,5.60
2023-03-10T12:51:59.921Z,4.00
2023-03-10T12:55:28.180Z,3.00
2023-03-10T12:59:05.204Z,5.20
2023-03-10T13:02:44.895Z,4.00
2023-03-10T13:06:24.408Z,5.00
2023-03-10T13:09:54.062Z,4.00
2023-03-10T13:13:21.254Z,3.40
2023-03-10T13:16:57.161Z,3.70
2023-03-10T13:20:25.505Z,5.10
2023-03-10T13:23:52.739Z,6.10
2023-03-10T13:27:24.035Z,7.90
2023-03-10T13:30:52.403Z,4.10
2023-03-10T13:34:22.860Z,9.50
2023-03-10T13:38:06.558Z,12.50
2023-03-10T13:41:37.475Z,6.20
2023-03-10T13:45:14.524Z,6.90
2023-03-10T13:48:42.478Z,6.80
2023-03-10T13:52:16.095Z,7.80
2023-03-10T13:55:43.448Z,10.80
2023-03-10T13:59:17.092Z,9.90
2023-03-10T14:02:45.998Z,10.50
2023-03-10T14:06:17.084Z,10.10
2023-03-10T14:09:44.200Z,11.70
2023-03-10T14:13:44.702Z,11.40
2023-03-10T14:17:30.666Z,11.30
2023-03-10T14:20:57.722Z,11.30
2023-03-10T14:24:27.303Z,9.10
2023-03-10T14:27:58.250Z,7.00
2023-03-10T14:31:26.774Z,9.10
2023-03-10T14:34:54.030Z,6.20
2023-03-10T14:38:21.223Z,5.30
2023-03-10T14:41:48.636Z,13.90
2023-03-10T14:45:27.532Z,13.40
2023-03-10T14:48:54.742Z,10.40
2023-03-10T14:52:21.859Z,13.90
2023-03-10T14:55:51.815Z,20.40
2023-03-10T14:59:19.742Z,21.60
2023-03-10T15:02:47.934Z,21.60
2023-03-10T15:06:18.544Z,22.60
2023-03-10T15:09:46.648Z,9.60
2023-03-10T15:13:15.072Z,7.70
2023-03-10T15:16:42.832Z,4.90
2023-03-10T15:20:16.440Z,4.60
2023-03-10T15:23:43.943Z,5.20
2023-03-10T15:27:13.603Z,5.70
2023-03-10T15:30:41.079Z,5.70
2023-03-10T15:34:08.243Z,6.20
2023-03-10T15:37:35.379Z,5.10
2023-03-10T15:41:05.863Z,6.00
2023-03-10T15:44:32.982Z,9.90
2023-03-10T15:48:00.455Z,8.50
2023-03-10T15:51:27.767Z,6.80
2023-03-10T15:54:54.989Z,15.20
2023-03-10T15:58:22.248Z,19.40
2023-03-10T16:01:49.557Z,11.20
2023-03-10T16:05:17.423Z,7.50
2023-03-10T16:08:44.865Z,6.50
2023-03-10T16:12:12.126Z,6.00
2023-03-10T16:15:41.727Z,10.40
2023-03-10T16:19:08.728Z,5.70
2023-03-10T16:22:40.645Z,8.00
2023-03-10T16:26:10.488Z,12.50
2023-03-10T16:33:02.980Z,27.30
2023-03-10T16:36:30.683Z,21.10
2023-03-10T16:39:58.675Z,21.50
2023-03-10T16:43:28.351Z,19.20
2023-03-10T16:46:55.370Z,19.40
2023-03-10T16:50:22.651Z,19.90
2023-03-10T16:53:50.333Z,22.20
2023-03-10T16:57:18.108Z,19.60
2023-03-10T17:00:45.148Z,26.80
2023-03-10T17:04:12.725Z,35.50
2023-03-10T17:07:53.270Z,31.50
2023-03-10T17:11:26.627Z,32.80
2023-03-10T17:14:56.521Z,36.30
2023-03-10T17:18:24.700Z,66.50
2023-03-10T17:21:54.184Z,92.10
2023-03-10T17:25:22.544Z,85.20
2023-03-10T17:28:52.440Z,58.80
2023-03-10T17:32:22.628Z,69.70
2023-03-10T17:35:50.931Z,107.90
2023-03-10T17:39:22.301Z,69.60
2023-03-10T17:42:50.230Z,63.50
2023-03-10T17:46:20.085Z,59.60
2023-03-10T17:49:47.976Z,67.70
2023-03-10T17:53:15.595Z,52.10
2023-03-10T17:56:42.824Z,49.10
2023-03-10T18:00:13.436Z,79.60
2023-03-10T18:03:41.629Z,67.70
2023-03-10T18:07:09.727Z,68.00
2023-03-10T18:10:38.399Z,68.70
2023-03-10T18:14:06.889Z,62.30
2023-03-10T18:17:34.212Z,64.90
2023-03-10T18:21:02.234Z,61.40
2023-03-10T18:24:29.799Z,66.80
2023-03-10T18:27:57.355Z,88.60
2023-03-10T18:31:26.769Z,85.10
2023-03-10T18:34:54.635Z,87.00
2023-03-10T18:38:22.274Z,140.20
2023-03-10T18:41:50.077Z,73.80
2023-03-10T18:45:17.994Z,191.80
2023-03-10T18:48:45.872Z,81.90
2023-03-10T18:52:16.063Z,70.20
2023-03-10T18:55:43.445Z,75.50
2023-03-10T18:59:11.367Z,78.60
2023-03-10T19:02:39.226Z,91.10
2023-03-10T19:06:09.068Z,111.40
2023-03-10T19:09:36.493Z,179.20
2023-03-10T19:13:04.682Z,74.60
2023-03-10T19:16:32.565Z,54.70
2023-03-10T19:20:01.262Z,59.40
2023-03-10T19:23:29.792Z,59.10
2023-03-10T19:26:57.870Z,52.80
2023-03-10T19:30:26.399Z,44.50
2023-03-10T19:33:54.297Z,42.20
2023-03-10T19:37:22.264Z,36.00
2023-03-10T19:40:50.343Z,33.80
2023-03-10T19:44:18.127Z,39.50
2023-03-10T19:47:46.683Z,35.80
2023-03-10T19:51:22.040Z,43.40
2023-03-10T19:54:52.190Z,38.50
2023-03-10T19:58:19.767Z,55.70
2023-03-10T20:01:49.125Z,44.00
2023-03-10T20:05:18.251Z,41.30
2023-03-10T20:08:46.238Z,40.30
2023-03-10T20:12:14.001Z,58.80
2023-03-10T20:15:44.142Z,58.80
2023-03-10T20:19:12.144Z,73.00
2023-03-10T20:22:41.689Z,58.30
2023-03-10T20:26:11.245Z,59.00
2023-03-10T20:29:38.439Z,50.60
2023-03-10T20:33:05.862Z,51.60
2023-03-10T20:36:33.427Z,55.30
2023-03-10T20:40:01.226Z,46.10
2023-03-10T20:43:28.830Z,41.80
2023-03-10T20:46:55.880Z,38.50
2023-03-10T20:50:23.219Z,33.70
2023-03-10T20:53:52.035Z,36.10
2023-03-10T20:57:19.108Z,34.60
2023-03-10T21:00:49.151Z,35.80
2023-03-10T21:04:16.780Z,42.20
2023-03-10T21:07:44.391Z,38.60
2023-03-10T21:11:11.663Z,46.40
2023-03-10T21:14:39.209Z,46.80
2023-03-10T21:18:06.413Z,41.10
2023-03-10T21:21:34.599Z,39.60
2023-03-10T21:25:01.858Z,38.40
2023-03-10T21:28:29.032Z,38.40
2023-03-10T21:31:56.339Z,38.60
2023-03-10T21:35:23.487Z,37.10
2023-03-10T21:38:51.698Z,38.70
2023-03-10T21:42:18.924Z,41.90
2023-03-10T21:45:45.977Z,41.20
2023-03-10T21:49:12.999Z,42.90
2023-03-10T21:52:39.990Z,44.00
2023-03-10T21:56:08.341Z,43.20
2023-03-10T21:59:35.532Z,36.90
2023-03-10T22:03:03.088Z,34.30
2023-03-10T22:06:30.054Z,27.10
2023-03-10T22:09:57.203Z,23.30
2023-03-10T22:13:24.271Z,20.40
2023-03-10T22:16:51.528Z,14.80
2023-03-10T22:20:20.859Z,14.20
2023-03-10T22:23:47.960Z,13.40
2023-03-10T22:27:15.276Z,12.70
2023-03-10T22:30:42.649Z,12.70
2023-03-10T22:34:09.665Z,12.20
2023-03-10T22:37:36.746Z,11.60
2023-03-10T22:41:03.720Z,12.20
2023-03-10T22:44:34.571Z,11.20
2023-03-10T22:48:03.776Z,10.50
2023-03-10T22:51:30.802Z,11.00
2023-03-10T22:54:57.900Z,10.50
2023-03-10T22:58:25.105Z,11.00
2023-03-10T23:01:52.456Z,11.50
2023-03-10T23:05:20.072Z,12.30
2023-03-10T23:08:48.592Z,12.50
2023-03-10T23:12:15.770Z,12.30
2023-03-10T23:15:43.883Z,10.80
2023-03-10T23:19:11.084Z,11.30
2023-03-10T23:22:38.057Z,10.20
2023-03-10T23:26:05.395Z,10.60
2023-03-10T23:29:32.445Z,10.50
2023-03-10T23:33:00.123Z,11.60
2023-03-10T23:36:27.555Z,10.20
2023-03-10T23:39:54.626Z,11.60
2023-03-10T23:43:22.211Z,11.20
2023-03-10T23:46:53.538Z,11.80
2023-03-10T23:50:23.677Z,11.40
2023-03-10T23:53:50.807Z,11.70
2023-03-10T23:57:17.903Z,12.60
